sensor_id;sensor_type;location;lat;lon;timestamp;temperature;humidity
14755;DHT22;7469;50.906;6.952;2022-10-26T00:00:32;12.70;99.90
14755;DHT22;7469;50.906;6.952;2022-10-26T00:03:00;12.70;99.90
14755;DHT22;7469;50.906;6.952;2022-10-26T00:05:30;12.80;99.90
14755;DHT22;7469;50.906;6.952;2022-10-26T00:07:59;12.80;99.90
14755;DHT22;7469;50.906;6.952;2022-10-26T00:10:27;12.80;99.90
14755;DHT22;7469;50.906;6.952;2022-10-26T00:12:58;12.80;99.90
14755;DHT22;7469;50.906;6.952;2022-10-26T00:15:27;12.80;99.90
14755;DHT22;7469;50.906;6.952;2022-10-26T00:17:55;12.80;99.90
14755;DHT22;7469;50.906;6.952;2022-10-26T00:20:23;12.90;99.90
14755;DHT22;7469;50.906;6.952;2022-10-26T00:22:51;12.90;99.90
14755;DHT22;7469;50.906;6.952;2022-10-26T00:25:19;12.90;99.90
14755;DHT22;7469;50.906;6.952;2022-10-26T00:27:47;12.90;99.90
14755;DHT22;7469;50.906;6.952;2022-10-26T00:30:17;12.90;99.90
14755;DHT22;7469;50.906;6.952;2022-10-26T00:32:45;12.90;99.90
14755;DHT22;7469;50.906;6.952;2022-10-26T00:35:13;12.90;99.90
14755;DHT22;7469;50.906;6.952;2022-10-26T00:37:55;13.00;99.90
14755;DHT22;7469;50.906;6.952;2022-10-26T00:40:26;13.00;99.90
14755;DHT22;7469;50.906;6.952;2022-10-26T00:42:55;13.00;99.90
14755;DHT22;7469;50.906;6.952;2022-10-26T00:45:26;13.00;99.90
14755;DHT22;7469;50.906;6.952;2022-10-26T00:47:56;13.00;99.90
14755;DHT22;7469;50.906;6.952;2022-10-26T00:50:27;13.00;99.90
14755;DHT22;7469;50.906;6.952;2022-10-26T00:52:58;13.00;99.90
14755;DHT22;7469;50.906;6.952;2022-10-26T00:55:31;13.00;99.90
14755;DHT22;7469;50.906;6.952;2022-10-26T00:58:00;13.00;99.90
14755;DHT22;7469;50.906;6.952;2022-10-26T01:00:30;13.00;99.90
14755;DHT22;7469;50.906;6.952;2022-10-26T01:03:01;13.00;99.90
14755;DHT22;7469;50.906;6.952;2022-10-26T01:05:31;13.00;99.90
14755;DHT22;7469;50.906;6.952;2022-10-26T01:08:01;13.00;99.90
14755;DHT22;7469;50.906;6.952;2022-10-26T01:10:29;13.00;99.90
14755;DHT22;7469;50.906;6.952;2022-10-26T01:12:58;13.00;99.90
14755;DHT22;7469;50.906;6.952;2022-10-26T01:15:33;13.00;99.90
14755;DHT22;7469;50.906;6.952;2022-10-26T01:18:06;13.00;99.90
14755;DHT22;7469;50.906;6.952;2022-10-26T01:24:05;13.00;99.90
14755;DHT22;7469;50.906;6.952;2022-10-26T01:26:57;13.00;99.90
14755;DHT22;7469;50.906;6.952;2022-10-26T01:29:57;13.00;99.90
14755;DHT22;7469;50.906;6.952;2022-10-26T01:32:32;13.00;99.90
14755;DHT22;7469;50.906;6.952;2022-10-26T01:35:06;13.00;99.90
14755;DHT22;7469;50.906;6.952;2022-10-26T01:37:38;13.00;99.90
14755;DHT22;7469;50.906;6.952;2022-10-26T01:40:10;13.10;99.90
14755;DHT22;7469;50.906;6.952;2022-10-26T01:42:45;13.10;99.90
14755;DHT22;7469;50.906;6.952;2022-10-26T01:45:14;13.00;99.90
14755;DHT22;7469;50.906;6.952;2022-10-26T01:47:46;13.10;99.90
14755;DHT22;7469;50.906;6.952;2022-10-26T01:50:15;13.10;99.90
14755;DHT22;7469;50.906;6.952;2022-10-26T01:52:48;13.10;99.90
14755;DHT22;7469;50.906;6.952;2022-10-26T01:55:42;13.10;99.90
14755;DHT22;7469;50.906;6.952;2022-10-26T02:01:03;13.10;99.90
14755;DHT22;7469;50.906;6.952;2022-10-26T02:03:39;13.10;99.90
14755;DHT22;7469;50.906;6.952;2022-10-26T02:06:12;13.10;99.90
14755;DHT22;7469;50.906;6.952;2022-10-26T02:08:56;13.20;99.90
14755;DHT22;7469;50.906;6.952;2022-10-26T02:11:35;13.20;99.90
14755;DHT22;7469;50.906;6.952;2022-10-26T02:14:11;13.20;99.90
14755;DHT22;7469;50.906;6.952;2022-10-26T02:16:52;13.20;99.90
14755;DHT22;7469;50.906;6.952;2022-10-26T02:19:30;13.20;99.90
14755;DHT22;7469;50.906;6.952;2022-10-26T02:22:04;13.20;99.90
14755;DHT22;7469;50.906;6.952;2022-10-26T02:24:34;13.20;99.90
14755;DHT22;7469;50.906;6.952;2022-10-26T02:27:05;13.20;99.90
14755;DHT22;7469;50.906;6.952;2022-10-26T02:29:35;13.30;99.90
14755;DHT22;7469;50.906;6.952;2022-10-26T02:32:05;13.30;99.90
14755;DHT22;7469;50.906;6.952;2022-10-26T02:34:37;13.30;99.90
14755;DHT22;7469;50.906;6.952;2022-10-26T02:37:07;13.30;99.90
14755;DHT22;7469;50.906;6.952;2022-10-26T02:39:38;13.30;99.90
14755;DHT22;7469;50.906;6.952;2022-10-26T02:42:08;13.30;99.90
14755;DHT22;7469;50.906;6.952;2022-10-26T02:44:41;13.30;99.90
14755;DHT22;7469;50.906;6.952;2022-10-26T02:47:11;13.30;99.90
14755;DHT22;7469;50.906;6.952;2022-10-26T02:49:41;13.30;99.90
14755;DHT22;7469;50.906;6.952;2022-10-26T02:52:13;13.30;99.90
14755;DHT22;7469;50.906;6.952;2022-10-26T02:54:51;13.30;99.90
14755;DHT22;7469;50.906;6.952;2022-10-26T02:57:25;13.30;99.90
14755;DHT22;7469;50.906;6.952;2022-10-26T02:59:55;13.30;99.90
14755;DHT22;7469;50.906;6.952;2022-10-26T03:02:23;13.30;99.90
14755;DHT22;7469;50.906;6.952;2022-10-26T03:04:54;13.40;99.90
14755;DHT22;7469;50.906;6.952;2022-10-26T03:07:22;13.40;99.90
14755;DHT22;7469;50.906;6.952;2022-10-26T03:09:50;13.40;99.90
14755;DHT22;7469;50.906;6.952;2022-10-26T03:12:18;13.40;99.90
14755;DHT22;7469;50.906;6.952;2022-10-26T03:14:46;13.40;99.90
14755;DHT22;7469;50.906;6.952;2022-10-26T03:17:14;13.40;99.90
14755;DHT22;7469;50.906;6.952;2022-10-26T03:19:42;13.40;99.90
14755;DHT22;7469;50.906;6.952;2022-10-26T03:22:11;13.40;99.90
14755;DHT22;7469;50.906;6.952;2022-10-26T03:24:39;13.50;99.90
14755;DHT22;7469;50.906;6.952;2022-10-26T03:27:07;13.50;99.90
14755;DHT22;7469;50.906;6.952;2022-10-26T03:29:35;13.50;99.90
14755;DHT22;7469;50.906;6.952;2022-10-26T03:32:03;13.50;99.90
14755;DHT22;7469;50.906;6.952;2022-10-26T03:34:31;13.50;99.90
14755;DHT22;7469;50.906;6.952;2022-10-26T03:37:00;13.50;99.90
14755;DHT22;7469;50.906;6.952;2022-10-26T03:39:30;13.60;99.90
14755;DHT22;7469;50.906;6.952;2022-10-26T03:41:58;13.60;99.90
14755;DHT22;7469;50.906;6.952;2022-10-26T03:44:26;13.60;99.90
14755;DHT22;7469;50.906;6.952;2022-10-26T03:46:53;13.70;99.90
14755;DHT22;7469;50.906;6.952;2022-10-26T03:49:21;13.70;99.90
14755;DHT22;7469;50.906;6.952;2022-10-26T03:51:49;13.70;99.90
14755;DHT22;7469;50.906;6.952;2022-10-26T03:54:17;13.80;99.90
14755;DHT22;7469;50.906;6.952;2022-10-26T03:56:46;13.70;99.90
14755;DHT22;7469;50.906;6.952;2022-10-26T03:59:20;13.80;99.90
14755;DHT22;7469;50.906;6.952;2022-10-26T04:01:48;13.80;99.90
14755;DHT22;7469;50.906;6.952;2022-10-26T04:04:22;13.90;99.90
14755;DHT22;7469;50.906;6.952;2022-10-26T04:06:50;13.90;99.90
14755;DHT22;7469;50.906;6.952;2022-10-26T04:09:18;13.90;99.90
14755;DHT22;7469;50.906;6.952;2022-10-26T04:11:47;13.90;99.90
14755;DHT22;7469;50.906;6.952;2022-10-26T04:14:15;13.90;99.90
14755;DHT22;7469;50.906;6.952;2022-10-26T04:16:43;13.90;99.90
14755;DHT22;7469;50.906;6.952;2022-10-26T04:19:11;13.90;99.90
14755;DHT22;7469;50.906;6.952;2022-10-26T04:21:39;13.90;99.90
14755;DHT22;7469;50.906;6.952;2022-10-26T04:24:08;14.00;99.90
14755;DHT22;7469;50.906;6.952;2022-10-26T04:26:36;14.00;99.90
14755;DHT22;7469;50.906;6.952;2022-10-26T04:29:05;14.00;99.90
14755;DHT22;7469;50.906;6.952;2022-10-26T04:31:34;14.00;99.90
14755;DHT22;7469;50.906;6.952;2022-10-26T04:34:03;14.00;99.90
14755;DHT22;7469;50.906;6.952;2022-10-26T04:36:31;14.00;99.90
14755;DHT22;7469;50.906;6.952;2022-10-26T04:39:00;14.00;99.90
14755;DHT22;7469;50.906;6.952;2022-10-26T04:41:28;14.00;99.90
14755;DHT22;7469;50.906;6.952;2022-10-26T04:43:56;14.00;99.90
14755;DHT22;7469;50.906;6.952;2022-10-26T04:46:25;14.00;99.90
14755;DHT22;7469;50.906;6.952;2022-10-26T04:48:53;14.00;99.90
14755;DHT22;7469;50.906;6.952;2022-10-26T04:51:21;14.00;99.90
14755;DHT22;7469;50.906;6.952;2022-10-26T04:53:49;14.00;99.90
14755;DHT22;7469;50.906;6.952;2022-10-26T04:56:17;14.10;99.90
14755;DHT22;7469;50.906;6.952;2022-10-26T04:58:45;14.10;99.90
14755;DHT22;7469;50.906;6.952;2022-10-26T05:01:13;14.10;99.90
14755;DHT22;7469;50.906;6.952;2022-10-26T05:03:42;14.10;99.90
14755;DHT22;7469;50.906;6.952;2022-10-26T05:06:10;14.10;99.90
14755;DHT22;7469;50.906;6.952;2022-10-26T05:08:38;14.20;99.90
14755;DHT22;7469;50.906;6.952;2022-10-26T05:11:06;14.20;99.90
14755;DHT22;7469;50.906;6.952;2022-10-26T05:13:34;14.20;99.90
14755;DHT22;7469;50.906;6.952;2022-10-26T05:16:02;14.20;99.90
14755;DHT22;7469;50.906;6.952;2022-10-26T05:18:30;14.20;99.90
14755;DHT22;7469;50.906;6.952;2022-10-26T05:20:59;14.30;99.90
14755;DHT22;7469;50.906;6.952;2022-10-26T05:23:27;14.30;99.90
14755;DHT22;7469;50.906;6.952;2022-10-26T05:25:55;14.30;99.90
14755;DHT22;7469;50.906;6.952;2022-10-26T05:28:23;14.30;99.90
14755;DHT22;7469;50.906;6.952;2022-10-26T05:30:51;14.30;99.90
14755;DHT22;7469;50.906;6.952;2022-10-26T05:33:19;14.40;99.90
14755;DHT22;7469;50.906;6.952;2022-10-26T05:35:47;14.40;99.90
14755;DHT22;7469;50.906;6.952;2022-10-26T05:38:16;14.40;99.90
14755;DHT22;7469;50.906;6.952;2022-10-26T05:40:47;14.40;99.90
14755;DHT22;7469;50.906;6.952;2022-10-26T05:43:16;14.50;99.90
14755;DHT22;7469;50.906;6.952;2022-10-26T05:45:44;14.50;99.90
14755;DHT22;7469;50.906;6.952;2022-10-26T05:48:12;14.50;99.90
14755;DHT22;7469;50.906;6.952;2022-10-26T05:50:40;14.50;99.90
14755;DHT22;7469;50.906;6.952;2022-10-26T05:53:08;14.50;99.90
14755;DHT22;7469;50.906;6.952;2022-10-26T05:55:38;14.50;99.90
14755;DHT22;7469;50.906;6.952;2022-10-26T05:58:09;14.50;99.90
14755;DHT22;7469;50.906;6.952;2022-10-26T06:00:45;14.50;99.90
14755;DHT22;7469;50.906;6.952;2022-10-26T06:03:23;14.50;99.90
14755;DHT22;7469;50.906;6.952;2022-10-26T06:05:56;14.50;99.90
14755;DHT22;7469;50.906;6.952;2022-10-26T06:08:28;14.50;99.90
14755;DHT22;7469;50.906;6.952;2022-10-26T06:10:58;14.50;99.90
14755;DHT22;7469;50.906;6.952;2022-10-26T06:13:29;14.50;99.90
14755;DHT22;7469;50.906;6.952;2022-10-26T06:16:08;14.50;99.90
14755;DHT22;7469;50.906;6.952;2022-10-26T06:18:43;14.50;99.90
14755;DHT22;7469;50.906;6.952;2022-10-26T06:21:25;14.50;99.90
14755;DHT22;7469;50.906;6.952;2022-10-26T06:24:03;14.50;99.90
14755;DHT22;7469;50.906;6.952;2022-10-26T06:26:39;14.50;99.90
14755;DHT22;7469;50.906;6.952;2022-10-26T06:29:20;14.50;99.90
14755;DHT22;7469;50.906;6.952;2022-10-26T06:31:49;14.50;99.90
14755;DHT22;7469;50.906;6.952;2022-10-26T06:34:22;14.50;99.90
14755;DHT22;7469;50.906;6.952;2022-10-26T06:36:52;14.50;99.90
14755;DHT22;7469;50.906;6.952;2022-10-26T06:39:26;14.50;99.90
14755;DHT22;7469;50.906;6.952;2022-10-26T06:41:57;14.50;99.90
14755;DHT22;7469;50.906;6.952;2022-10-26T06:44:26;14.50;99.90
14755;DHT22;7469;50.906;6.952;2022-10-26T06:47:00;14.50;99.90
14755;DHT22;7469;50.906;6.952;2022-10-26T06:49:35;14.50;99.90
14755;DHT22;7469;50.906;6.952;2022-10-26T06:52:09;14.50;99.90
14755;DHT22;7469;50.906;6.952;2022-10-26T06:54:46;14.50;99.90
14755;DHT22;7469;50.906;6.952;2022-10-26T06:57:18;14.40;99.90
14755;DHT22;7469;50.906;6.952;2022-10-26T06:59:49;14.40;99.90
14755;DHT22;7469;50.906;6.952;2022-10-26T07:02:17;14.40;99.90
14755;DHT22;7469;50.906;6.952;2022-10-26T07:04:46;14.40;99.90
14755;DHT22;7469;50.906;6.952;2022-10-26T07:07:18;14.30;99.90
14755;DHT22;7469;50.906;6.952;2022-10-26T07:09:46;14.30;99.90
14755;DHT22;7469;50.906;6.952;2022-10-26T07:12:15;14.30;99.90
14755;DHT22;7469;50.906;6.952;2022-10-26T07:14:43;14.30;99.90
14755;DHT22;7469;50.906;6.952;2022-10-26T07:17:11;14.30;99.90
14755;DHT22;7469;50.906;6.952;2022-10-26T07:19:39;14.20;99.90
14755;DHT22;7469;50.906;6.952;2022-10-26T07:22:10;14.20;99.90
14755;DHT22;7469;50.906;6.952;2022-10-26T07:24:38;14.20;99.90
14755;DHT22;7469;50.906;6.952;2022-10-26T07:27:06;14.20;99.90
14755;DHT22;7469;50.906;6.952;2022-10-26T07:29:35;14.20;99.90
14755;DHT22;7469;50.906;6.952;2022-10-26T07:32:04;14.30;99.90
14755;DHT22;7469;50.906;6.952;2022-10-26T07:34:32;14.30;99.90
14755;DHT22;7469;50.906;6.952;2022-10-26T07:37:00;14.30;99.90
14755;DHT22;7469;50.906;6.952;2022-10-26T07:39:28;14.30;99.90
14755;DHT22;7469;50.906;6.952;2022-10-26T07:41:58;14.40;99.90
14755;DHT22;7469;50.906;6.952;2022-10-26T07:44:26;14.40;99.90
14755;DHT22;7469;50.906;6.952;2022-10-26T07:46:55;14.40;99.90
14755;DHT22;7469;50.906;6.952;2022-10-26T07:49:23;14.40;99.90
14755;DHT22;7469;50.906;6.952;2022-10-26T07:51:53;14.40;99.90
14755;DHT22;7469;50.906;6.952;2022-10-26T07:54:21;14.50;99.90
14755;DHT22;7469;50.906;6.952;2022-10-26T07:56:49;14.50;99.90
14755;DHT22;7469;50.906;6.952;2022-10-26T07:59:17;14.50;99.90
14755;DHT22;7469;50.906;6.952;2022-10-26T08:01:45;14.50;99.90
14755;DHT22;7469;50.906;6.952;2022-10-26T08:04:15;14.50;99.90
14755;DHT22;7469;50.906;6.952;2022-10-26T08:06:43;14.60;99.90
14755;DHT22;7469;50.906;6.952;2022-10-26T08:09:12;14.70;99.90
14755;DHT22;7469;50.906;6.952;2022-10-26T08:11:40;14.70;99.90
14755;DHT22;7469;50.906;6.952;2022-10-26T08:14:09;14.90;99.90
14755;DHT22;7469;50.906;6.952;2022-10-26T08:16:38;14.90;99.90
14755;DHT22;7469;50.906;6.952;2022-10-26T08:19:06;15.10;99.90
14755;DHT22;7469;50.906;6.952;2022-10-26T08:21:36;15.20;99.90
14755;DHT22;7469;50.906;6.952;2022-10-26T08:24:06;15.30;99.90
14755;DHT22;7469;50.906;6.952;2022-10-26T08:26:34;15.50;99.90
14755;DHT22;7469;50.906;6.952;2022-10-26T08:29:02;15.70;99.90
14755;DHT22;7469;50.906;6.952;2022-10-26T08:31:30;15.80;99.90
14755;DHT22;7469;50.906;6.952;2022-10-26T08:33:58;16.10;99.90
14755;DHT22;7469;50.906;6.952;2022-10-26T08:36:27;16.30;99.90
14755;DHT22;7469;50.906;6.952;2022-10-26T08:38:56;16.50;99.90
14755;DHT22;7469;50.906;6.952;2022-10-26T08:41:33;16.80;99.90
14755;DHT22;7469;50.906;6.952;2022-10-26T08:44:06;17.30;99.90
14755;DHT22;7469;50.906;6.952;2022-10-26T08:46:41;17.90;99.90
14755;DHT22;7469;50.906;6.952;2022-10-26T08:49:21;18.60;99.90
14755;DHT22;7469;50.906;6.952;2022-10-26T08:51:53;18.90;99.90
14755;DHT22;7469;50.906;6.952;2022-10-26T08:54:31;19.00;99.90
14755;DHT22;7469;50.906;6.952;2022-10-26T08:57:04;18.90;99.90
14755;DHT22;7469;50.906;6.952;2022-10-26T08:59:39;18.80;99.90
14755;DHT22;7469;50.906;6.952;2022-10-26T09:02:11;18.60;99.90
14755;DHT22;7469;50.906;6.952;2022-10-26T09:04:40;18.50;99.90
14755;DHT22;7469;50.906;6.952;2022-10-26T09:07:14;18.30;99.90
14755;DHT22;7469;50.906;6.952;2022-10-26T09:09:51;18.10;99.90
14755;DHT22;7469;50.906;6.952;2022-10-26T09:12:26;17.90;99.90
14755;DHT22;7469;50.906;6.952;2022-10-26T09:15:11;17.80;99.90
14755;DHT22;7469;50.906;6.952;2022-10-26T09:17:46;17.80;99.90
14755;DHT22;7469;50.906;6.952;2022-10-26T09:20:30;17.90;99.90
14755;DHT22;7469;50.906;6.952;2022-10-26T09:23:12;18.00;99.90
14755;DHT22;7469;50.906;6.952;2022-10-26T09:25:47;18.30;99.90
14755;DHT22;7469;50.906;6.952;2022-10-26T09:28:20;18.70;99.90
14755;DHT22;7469;50.906;6.952;2022-10-26T09:30:48;20.10;99.90
14755;DHT22;7469;50.906;6.952;2022-10-26T09:33:18;21.50;99.90
14755;DHT22;7469;50.906;6.952;2022-10-26T09:35:51;23.20;99.90
14755;DHT22;7469;50.906;6.952;2022-10-26T09:38:23;25.00;99.90
14755;DHT22;7469;50.906;6.952;2022-10-26T09:40:58;26.60;99.90
14755;DHT22;7469;50.906;6.952;2022-10-26T09:43:30;28.00;99.90
14755;DHT22;7469;50.906;6.952;2022-10-26T09:45:59;29.00;99.90
14755;DHT22;7469;50.906;6.952;2022-10-26T09:48:32;29.70;99.90
14755;DHT22;7469;50.906;6.952;2022-10-26T09:51:03;30.50;99.20
14755;DHT22;7469;50.906;6.952;2022-10-26T09:53:31;31.20;96.40
14755;DHT22;7469;50.906;6.952;2022-10-26T09:56:04;31.60;92.40
14755;DHT22;7469;50.906;6.952;2022-10-26T09:58:35;31.80;90.00
14755;DHT22;7469;50.906;6.952;2022-10-26T10:01:06;32.30;85.70
14755;DHT22;7469;50.906;6.952;2022-10-26T10:03:47;32.80;81.90
14755;DHT22;7469;50.906;6.952;2022-10-26T10:06:16;33.10;75.90
14755;DHT22;7469;50.906;6.952;2022-10-26T10:09:04;33.40;73.00
14755;DHT22;7469;50.906;6.952;2022-10-26T10:11:38;33.70;69.40
14755;DHT22;7469;50.906;6.952;2022-10-26T10:14:07;34.00;65.90
14755;DHT22;7469;50.906;6.952;2022-10-26T10:16:36;34.30;63.00
14755;DHT22;7469;50.906;6.952;2022-10-26T10:19:04;34.60;60.30
14755;DHT22;7469;50.906;6.952;2022-10-26T10:21:34;34.70;58.00
14755;DHT22;7469;50.906;6.952;2022-10-26T10:24:24;34.90;56.50
14755;DHT22;7469;50.906;6.952;2022-10-26T10:26:59;34.90;55.00
14755;DHT22;7469;50.906;6.952;2022-10-26T10:29:29;34.80;53.20
14755;DHT22;7469;50.906;6.952;2022-10-26T10:31:59;34.80;52.90
14755;DHT22;7469;50.906;6.952;2022-10-26T10:34:29;34.90;51.90
14755;DHT22;7469;50.906;6.952;2022-10-26T10:36:58;34.90;51.10
14755;DHT22;7469;50.906;6.952;2022-10-26T10:39:33;34.80;49.70
14755;DHT22;7469;50.906;6.952;2022-10-26T10:42:05;34.80;49.70
14755;DHT22;7469;50.906;6.952;2022-10-26T10:44:34;35.00;49.50
14755;DHT22;7469;50.906;6.952;2022-10-26T10:47:03;35.30;49.00
14755;DHT22;7469;50.906;6.952;2022-10-26T10:49:32;35.30;48.10
14755;DHT22;7469;50.906;6.952;2022-10-26T10:52:00;35.40;47.50
14755;DHT22;7469;50.906;6.952;2022-10-26T10:54:31;35.70;47.30
14755;DHT22;7469;50.906;6.952;2022-10-26T10:57:08;36.00;46.40
14755;DHT22;7469;50.906;6.952;2022-10-26T10:59:53;36.00;45.50
14755;DHT22;7469;50.906;6.952;2022-10-26T11:02:50;35.90;44.80
14755;DHT22;7469;50.906;6.952;2022-10-26T11:05:37;35.80;44.00
14755;DHT22;7469;50.906;6.952;2022-10-26T11:08:10;35.30;43.30
14755;DHT22;7469;50.906;6.952;2022-10-26T11:10:43;34.90;43.30
14755;DHT22;7469;50.906;6.952;2022-10-26T11:13:17;34.70;43.50
14755;DHT22;7469;50.906;6.952;2022-10-26T11:15:49;34.80;44.00
14755;DHT22;7469;50.906;6.952;2022-10-26T11:18:22;35.20;44.00
14755;DHT22;7469;50.906;6.952;2022-10-26T11:20:55;35.10;43.70
14755;DHT22;7469;50.906;6.952;2022-10-26T11:23:30;35.00;43.50
14755;DHT22;7469;50.906;6.952;2022-10-26T11:26:04;34.90;43.30
14755;DHT22;7469;50.906;6.952;2022-10-26T11:28:43;34.60;42.90
14755;DHT22;7469;50.906;6.952;2022-10-26T11:31:15;34.50;43.20
14755;DHT22;7469;50.906;6.952;2022-10-26T11:33:58;34.60;43.20
14755;DHT22;7469;50.906;6.952;2022-10-26T11:36:28;34.80;42.80
14755;DHT22;7469;50.906;6.952;2022-10-26T11:39:00;34.60;41.80
14755;DHT22;7469;50.906;6.952;2022-10-26T11:41:35;34.40;42.40
14755;DHT22;7469;50.906;6.952;2022-10-26T11:44:12;34.10;42.80
14755;DHT22;7469;50.906;6.952;2022-10-26T11:46:43;33.50;42.90
14755;DHT22;7469;50.906;6.952;2022-10-26T11:49:18;32.90;43.40
14755;DHT22;7469;50.906;6.952;2022-10-26T11:51:51;32.10;43.70
14755;DHT22;7469;50.906;6.952;2022-10-26T11:54:27;31.40;44.60
14755;DHT22;7469;50.906;6.952;2022-10-26T11:56:57;30.60;45.60
14755;DHT22;7469;50.906;6.952;2022-10-26T11:59:29;29.90;46.50
14755;DHT22;7469;50.906;6.952;2022-10-26T12:02:03;29.30;47.50
14755;DHT22;7469;50.906;6.952;2022-10-26T12:04:34;28.70;48.20
14755;DHT22;7469;50.906;6.952;2022-10-26T12:07:08;28.10;49.10
14755;DHT22;7469;50.906;6.952;2022-10-26T12:09:37;27.60;50.20
14755;DHT22;7469;50.906;6.952;2022-10-26T12:12:13;27.10;51.00
14755;DHT22;7469;50.906;6.952;2022-10-26T12:14:50;26.70;51.90
14755;DHT22;7469;50.906;6.952;2022-10-26T12:17:25;26.30;52.60
14755;DHT22;7469;50.906;6.952;2022-10-26T12:19:59;26.00;53.50
14755;DHT22;7469;50.906;6.952;2022-10-26T12:22:33;25.80;54.20
14755;DHT22;7469;50.906;6.952;2022-10-26T12:25:06;25.60;54.90
14755;DHT22;7469;50.906;6.952;2022-10-26T12:27:54;25.40;55.50
14755;DHT22;7469;50.906;6.952;2022-10-26T12:30:28;25.30;56.20
14755;DHT22;7469;50.906;6.952;2022-10-26T12:32:58;25.20;56.90
14755;DHT22;7469;50.906;6.952;2022-10-26T12:35:38;25.10;57.40
14755;DHT22;7469;50.906;6.952;2022-10-26T12:41:22;25.10;58.60
14755;DHT22;7469;50.906;6.952;2022-10-26T12:43:55;25.10;59.20
14755;DHT22;7469;50.906;6.952;2022-10-26T12:46:43;25.10;59.30
14755;DHT22;7469;50.906;6.952;2022-10-26T12:55:37;25.00;61.00
14755;DHT22;7469;50.906;6.952;2022-10-26T13:01:27;24.90;62.00
14755;DHT22;7469;50.906;6.952;2022-10-26T13:04:10;24.90;62.80
14755;DHT22;7469;50.906;6.952;2022-10-26T13:07:06;24.90;63.70
14755;DHT22;7469;50.906;6.952;2022-10-26T13:09:37;25.00;64.40
14755;DHT22;7469;50.906;6.952;2022-10-26T13:12:05;24.90;64.80
14755;DHT22;7469;50.906;6.952;2022-10-26T13:14:36;25.00;65.10
14755;DHT22;7469;50.906;6.952;2022-10-26T13:17:22;25.10;65.40
14755;DHT22;7469;50.906;6.952;2022-10-26T13:19:56;25.10;65.40
14755;DHT22;7469;50.906;6.952;2022-10-26T13:22:24;25.10;65.20
14755;DHT22;7469;50.906;6.952;2022-10-26T13:24:55;25.00;64.30
14755;DHT22;7469;50.906;6.952;2022-10-26T13:27:41;25.00;63.90
14755;DHT22;7469;50.906;6.952;2022-10-26T13:30:19;25.00;63.90
14755;DHT22;7469;50.906;6.952;2022-10-26T13:32:50;24.90;63.80
14755;DHT22;7469;50.906;6.952;2022-10-26T13:35:23;24.90;63.60
14755;DHT22;7469;50.906;6.952;2022-10-26T13:37:53;24.90;63.50
14755;DHT22;7469;50.906;6.952;2022-10-26T13:40:25;24.90;63.30
14755;DHT22;7469;50.906;6.952;2022-10-26T13:42:55;24.90;63.20
14755;DHT22;7469;50.906;6.952;2022-10-26T13:45:26;24.90;63.10
14755;DHT22;7469;50.906;6.952;2022-10-26T13:47:58;24.90;62.70
14755;DHT22;7469;50.906;6.952;2022-10-26T13:50:32;24.80;62.30
14755;DHT22;7469;50.906;6.952;2022-10-26T13:53:07;24.80;62.60
14755;DHT22;7469;50.906;6.952;2022-10-26T13:55:42;24.80;62.50
14755;DHT22;7469;50.906;6.952;2022-10-26T13:58:17;24.80;62.80
14755;DHT22;7469;50.906;6.952;2022-10-26T14:01:03;24.90;62.90
14755;DHT22;7469;50.906;6.952;2022-10-26T14:03:31;24.90;62.80
14755;DHT22;7469;50.906;6.952;2022-10-26T14:06:03;24.90;62.60
14755;DHT22;7469;50.906;6.952;2022-10-26T14:08:31;24.80;62.80
14755;DHT22;7469;50.906;6.952;2022-10-26T14:10:59;24.80;62.50
14755;DHT22;7469;50.906;6.952;2022-10-26T14:13:28;24.70;62.70
14755;DHT22;7469;50.906;6.952;2022-10-26T14:15:57;24.70;63.00
14755;DHT22;7469;50.906;6.952;2022-10-26T14:18:28;24.70;63.10
14755;DHT22;7469;50.906;6.952;2022-10-26T14:21:01;24.70;63.30
14755;DHT22;7469;50.906;6.952;2022-10-26T14:23:33;24.70;63.10
14755;DHT22;7469;50.906;6.952;2022-10-26T14:26:02;24.70;63.00
14755;DHT22;7469;50.906;6.952;2022-10-26T14:28:31;24.60;63.20
14755;DHT22;7469;50.906;6.952;2022-10-26T14:31:12;24.60;63.50
14755;DHT22;7469;50.906;6.952;2022-10-26T14:33:46;24.50;63.70
14755;DHT22;7469;50.906;6.952;2022-10-26T14:36:16;24.50;63.70
14755;DHT22;7469;50.906;6.952;2022-10-26T14:38:48;24.40;63.80
14755;DHT22;7469;50.906;6.952;2022-10-26T14:41:17;24.30;64.10
14755;DHT22;7469;50.906;6.952;2022-10-26T14:43:46;24.30;64.20
14755;DHT22;7469;50.906;6.952;2022-10-26T14:46:16;24.20;65.10
14755;DHT22;7469;50.906;6.952;2022-10-26T14:48:53;24.10;64.50
14755;DHT22;7469;50.906;6.952;2022-10-26T14:51:27;24.00;64.80
14755;DHT22;7469;50.906;6.952;2022-10-26T14:53:56;23.90;65.10
14755;DHT22;7469;50.906;6.952;2022-10-26T14:56:29;23.90;65.50
14755;DHT22;7469;50.906;6.952;2022-10-26T14:58:58;23.70;65.80
14755;DHT22;7469;50.906;6.952;2022-10-26T15:01:29;23.70;66.30
14755;DHT22;7469;50.906;6.952;2022-10-26T15:04:04;23.60;67.50
14755;DHT22;7469;50.906;6.952;2022-10-26T15:06:39;23.60;67.10
14755;DHT22;7469;50.906;6.952;2022-10-26T15:09:28;23.50;67.30
14755;DHT22;7469;50.906;6.952;2022-10-26T15:11:56;23.40;67.60
14755;DHT22;7469;50.906;6.952;2022-10-26T15:14:24;23.30;67.90
14755;DHT22;7469;50.906;6.952;2022-10-26T15:16:54;23.30;69.40
14755;DHT22;7469;50.906;6.952;2022-10-26T15:19:23;23.20;69.20
14755;DHT22;7469;50.906;6.952;2022-10-26T15:21:54;23.10;70.10
14755;DHT22;7469;50.906;6.952;2022-10-26T15:24:32;23.00;70.90
14755;DHT22;7469;50.906;6.952;2022-10-26T15:27:11;23.00;71.70
14755;DHT22;7469;50.906;6.952;2022-10-26T15:29:42;22.90;72.90
14755;DHT22;7469;50.906;6.952;2022-10-26T15:32:26;22.80;74.20
14755;DHT22;7469;50.906;6.952;2022-10-26T15:35:14;22.60;75.30
14755;DHT22;7469;50.906;6.952;2022-10-26T15:37:50;22.50;76.50
14755;DHT22;7469;50.906;6.952;2022-10-26T15:40:18;22.40;77.70
14755;DHT22;7469;50.906;6.952;2022-10-26T15:42:48;22.30;78.50
14755;DHT22;7469;50.906;6.952;2022-10-26T15:45:19;22.10;78.70
14755;DHT22;7469;50.906;6.952;2022-10-26T15:47:49;22.00;79.10
14755;DHT22;7469;50.906;6.952;2022-10-26T15:50:19;21.90;79.50
14755;DHT22;7469;50.906;6.952;2022-10-26T15:52:54;21.80;79.90
14755;DHT22;7469;50.906;6.952;2022-10-26T15:55:23;21.80;80.80
14755;DHT22;7469;50.906;6.952;2022-10-26T15:57:51;21.60;81.80
14755;DHT22;7469;50.906;6.952;2022-10-26T16:00:19;21.50;83.00
14755;DHT22;7469;50.906;6.952;2022-10-26T16:02:47;21.40;84.50
14755;DHT22;7469;50.906;6.952;2022-10-26T16:05:15;21.30;85.90
14755;DHT22;7469;50.906;6.952;2022-10-26T16:07:45;21.10;87.50
14755;DHT22;7469;50.906;6.952;2022-10-26T16:10:20;21.00;89.70
14755;DHT22;7469;50.906;6.952;2022-10-26T16:12:49;20.90;91.00
14755;DHT22;7469;50.906;6.952;2022-10-26T16:15:19;20.70;92.10
14755;DHT22;7469;50.906;6.952;2022-10-26T16:17:48;20.60;93.20
14755;DHT22;7469;50.906;6.952;2022-10-26T16:20:18;20.40;94.10
14755;DHT22;7469;50.906;6.952;2022-10-26T16:22:48;20.30;94.90
14755;DHT22;7469;50.906;6.952;2022-10-26T16:25:20;20.10;95.60
14755;DHT22;7469;50.906;6.952;2022-10-26T16:27:49;20.00;96.20
14755;DHT22;7469;50.906;6.952;2022-10-26T16:30:19;19.90;96.80
14755;DHT22;7469;50.906;6.952;2022-10-26T16:32:47;19.70;97.30